sensor_id;sensor_type;location;lat;lon;timestamp;temperature;humidity
38854;DHT22;24606;51.992;4.198;2023-11-22T00:03:54;17.20;99.90
38854;DHT22;24606;51.992;4.198;2023-11-22T00:08:57;17.20;99.90
38854;DHT22;24606;51.992;4.198;2023-11-22T00:14:00;17.20;99.90
38854;DHT22;24606;51.992;4.198;2023-11-22T00:19:03;17.20;99.90
38854;DHT22;24606;51.992;4.198;2023-11-22T00:24:05;17.20;99.90
38854;DHT22;24606;51.992;4.198;2023-11-22T00:29:09;17.20;99.90
38854;DHT22;24606;51.992;4.198;2023-11-22T00:34:10;17.20;99.90
38854;DHT22;24606;51.992;4.198;2023-11-22T00:39:12;17.20;99.80
38854;DHT22;24606;51.992;4.198;2023-11-22T00:44:15;17.20;99.80
38854;DHT22;24606;51.992;4.198;2023-11-22T00:49:18;17.10;99.60
38854;DHT22;24606;51.992;4.198;2023-11-22T00:54:21;17.10;99.70
38854;DHT22;24606;51.992;4.198;2023-11-22T00:59:24;17.20;99.60
38854;DHT22;24606;51.992;4.198;2023-11-22T01:04:27;17.10;99.60
38854;DHT22;24606;51.992;4.198;2023-11-22T01:09:28;17.10;99.50
38854;DHT22;24606;51.992;4.198;2023-11-22T01:14:32;17.10;99.50
38854;DHT22;24606;51.992;4.198;2023-11-22T01:19:33;17.10;99.40
38854;DHT22;24606;51.992;4.198;2023-11-22T01:24:35;17.10;99.40
38854;DHT22;24606;51.992;4.198;2023-11-22T01:29:39;17.10;99.40
38854;DHT22;24606;51.992;4.198;2023-11-22T01:34:42;17.10;99.40
38854;DHT22;24606;51.992;4.198;2023-11-22T01:39:43;17.10;99.40
38854;DHT22;24606;51.992;4.198;2023-11-22T01:44:46;17.10;99.20
38854;DHT22;24606;51.992;4.198;2023-11-22T01:49:48;17.10;99.20
38854;DHT22;24606;51.992;4.198;2023-11-22T01:54:51;17.10;99.20
38854;DHT22;24606;51.992;4.198;2023-11-22T01:59:55;17.00;99.30
38854;DHT22;24606;51.992;4.198;2023-11-22T02:04:57;17.00;99.10
38854;DHT22;24606;51.992;4.198;2023-11-22T02:09:59;17.00;99.20
38854;DHT22;24606;51.992;4.198;2023-11-22T02:15:03;17.00;99.10
38854;DHT22;24606;51.992;4.198;2023-11-22T02:20:06;16.90;99.10
38854;DHT22;24606;51.992;4.198;2023-11-22T02:25:13;17.00;99.10
38854;DHT22;24606;51.992;4.198;2023-11-22T02:30:15;16.90;99.00
38854;DHT22;24606;51.992;4.198;2023-11-22T02:35:17;16.90;99.10
38854;DHT22;24606;51.992;4.198;2023-11-22T02:40:22;16.90;99.00
38854;DHT22;24606;51.992;4.198;2023-11-22T02:45:28;16.90;99.00
38854;DHT22;24606;51.992;4.198;2023-11-22T02:50:30;16.90;98.90
38854;DHT22;24606;51.992;4.198;2023-11-22T02:55:33;16.90;98.90
38854;DHT22;24606;51.992;4.198;2023-11-22T03:00:35;16.90;99.00
38854;DHT22;24606;51.992;4.198;2023-11-22T03:05:37;16.80;98.80
38854;DHT22;24606;51.992;4.198;2023-11-22T03:10:41;16.80;98.90
38854;DHT22;24606;51.992;4.198;2023-11-22T03:15:43;16.80;99.00
38854;DHT22;24606;51.992;4.198;2023-11-22T03:20:45;16.80;98.90
38854;DHT22;24606;51.992;4.198;2023-11-22T03:25:48;16.80;99.00
38854;DHT22;24606;51.992;4.198;2023-11-22T03:30:50;16.80;98.90
38854;DHT22;24606;51.992;4.198;2023-11-22T03:35:52;16.80;98.70
38854;DHT22;24606;51.992;4.198;2023-11-22T03:40:55;16.80;98.80
38854;DHT22;24606;51.992;4.198;2023-11-22T03:45:57;16.80;98.60
38854;DHT22;24606;51.992;4.198;2023-11-22T03:50:58;16.70;98.50
38854;DHT22;24606;51.992;4.198;2023-11-22T03:56:02;16.70;98.70
38854;DHT22;24606;51.992;4.198;2023-11-22T04:15:28;16.50;98.90
38854;DHT22;24606;51.992;4.198;2023-11-22T04:20:31;16.50;98.90
38854;DHT22;24606;51.992;4.198;2023-11-22T04:25:33;16.60;98.80
38854;DHT22;24606;51.992;4.198;2023-11-22T04:30:36;16.60;98.90
38854;DHT22;24606;51.992;4.198;2023-11-22T04:35:38;16.60;98.80
38854;DHT22;24606;51.992;4.198;2023-11-22T04:40:40;16.60;98.60
38854;DHT22;24606;51.992;4.198;2023-11-22T04:45:44;16.60;98.50
38854;DHT22;24606;51.992;4.198;2023-11-22T04:50:45;16.60;98.50
38854;DHT22;24606;51.992;4.198;2023-11-22T04:55:47;16.60;98.50
38854;DHT22;24606;51.992;4.198;2023-11-22T05:00:51;16.70;98.50
38854;DHT22;24606;51.992;4.198;2023-11-22T05:05:52;16.70;98.30
38854;DHT22;24606;51.992;4.198;2023-11-22T05:10:54;16.70;98.20
38854;DHT22;24606;51.992;4.198;2023-11-22T05:15:57;16.60;98.00
38854;DHT22;24606;51.992;4.198;2023-11-22T05:20:59;16.60;98.10
38854;DHT22;24606;51.992;4.198;2023-11-22T05:26:01;16.70;98.00
38854;DHT22;24606;51.992;4.198;2023-11-22T05:31:05;16.80;97.80
38854;DHT22;24606;51.992;4.198;2023-11-22T05:36:07;16.90;97.60
38854;DHT22;24606;51.992;4.198;2023-11-22T05:41:12;16.90;97.30
38854;DHT22;24606;51.992;4.198;2023-11-22T05:46:15;16.90;97.40
38854;DHT22;24606;51.992;4.198;2023-11-22T05:51:22;16.90;97.40
38854;DHT22;24606;51.992;4.198;2023-11-22T05:56:23;16.90;97.40
38854;DHT22;24606;51.992;4.198;2023-11-22T06:01:26;16.90;97.20
38854;DHT22;24606;51.992;4.198;2023-11-22T06:06:28;16.90;97.30
38854;DHT22;24606;51.992;4.198;2023-11-22T06:11:30;16.80;97.20
38854;DHT22;24606;51.992;4.198;2023-11-22T06:16:33;16.80;97.30
38854;DHT22;24606;51.992;4.198;2023-11-22T06:21:35;16.80;97.50
38854;DHT22;24606;51.992;4.198;2023-11-22T06:26:38;16.80;97.60
38854;DHT22;24606;51.992;4.198;2023-11-22T06:31:41;16.80;97.50
38854;DHT22;24606;51.992;4.198;2023-11-22T06:36:43;16.90;97.60
38854;DHT22;24606;51.992;4.198;2023-11-22T06:41:45;16.80;97.80
38854;DHT22;24606;51.992;4.198;2023-11-22T06:46:49;16.80;97.60
38854;DHT22;24606;51.992;4.198;2023-11-22T06:51:51;16.80;97.10
38854;DHT22;24606;51.992;4.198;2023-11-22T06:56:53;16.70;98.00
38854;DHT22;24606;51.992;4.198;2023-11-22T07:01:56;16.70;98.10
38854;DHT22;24606;51.992;4.198;2023-11-22T07:06:58;16.80;98.10
38854;DHT22;24606;51.992;4.198;2023-11-22T07:12:01;16.80;98.30
38854;DHT22;24606;51.992;4.198;2023-11-22T07:17:04;16.80;98.30
38854;DHT22;24606;51.992;4.198;2023-11-22T07:22:07;16.80;98.30
38854;DHT22;24606;51.992;4.198;2023-11-22T07:27:16;16.80;98.20
38854;DHT22;24606;51.992;4.198;2023-11-22T07:32:20;16.80;98.30
38854;DHT22;24606;51.992;4.198;2023-11-22T07:37:22;16.80;98.20
38854;DHT22;24606;51.992;4.198;2023-11-22T07:42:24;16.80;98.30
38854;DHT22;24606;51.992;4.198;2023-11-22T07:47:27;16.80;98.30
38854;DHT22;24606;51.992;4.198;2023-11-22T07:52:29;16.80;98.30
38854;DHT22;24606;51.992;4.198;2023-11-22T07:57:31;16.90;98.20
38854;DHT22;24606;51.992;4.198;2023-11-22T08:02:35;16.90;98.20
38854;DHT22;24606;51.992;4.198;2023-11-22T08:07:39;16.80;98.20
38854;DHT22;24606;51.992;4.198;2023-11-22T08:12:41;16.80;98.20
38854;DHT22;24606;51.992;4.198;2023-11-22T08:17:44;16.80;98.20
38854;DHT22;24606;51.992;4.198;2023-11-22T08:22:47;16.90;98.20
38854;DHT22;24606;51.992;4.198;2023-11-22T08:27:51;16.80;98.10
38854;DHT22;24606;51.992;4.198;2023-11-22T08:32:55;16.90;98.10
38854;DHT22;24606;51.992;4.198;2023-11-22T08:37:57;16.90;98.10
38854;DHT22;24606;51.992;4.198;2023-11-22T08:43:01;16.90;97.90
38854;DHT22;24606;51.992;4.198;2023-11-22T08:48:04;16.90;98.00
38854;DHT22;24606;51.992;4.198;2023-11-22T08:53:06;16.70;93.90
38854;DHT22;24606;51.992;4.198;2023-11-22T08:58:10;15.70;98.50
38854;DHT22;24606;51.992;4.198;2023-11-22T09:03:13;16.00;97.00
38854;DHT22;24606;51.992;4.198;2023-11-22T09:08:17;16.20;99.50
38854;DHT22;24606;51.992;4.198;2023-11-22T09:13:21;16.10;99.30
38854;DHT22;24606;51.992;4.198;2023-11-22T09:18:24;16.10;98.90
38854;DHT22;24606;51.992;4.198;2023-11-22T09:23:27;14.40;99.90
38854;DHT22;24606;51.992;4.198;2023-11-22T09:28:30;15.40;99.90
38854;DHT22;24606;51.992;4.198;2023-11-22T09:33:33;16.10;99.90
38854;DHT22;24606;51.992;4.198;2023-11-22T09:38:35;16.50;99.30
38854;DHT22;24606;51.992;4.198;2023-11-22T09:43:38;16.60;98.60
38854;DHT22;24606;51.992;4.198;2023-11-22T09:48:42;16.70;98.40
38854;DHT22;24606;51.992;4.198;2023-11-22T09:53:53;16.50;99.00
38854;DHT22;24606;51.992;4.198;2023-11-22T09:58:59;16.70;98.30
38854;DHT22;24606;51.992;4.198;2023-11-22T10:04:03;16.90;97.50
38854;DHT22;24606;51.992;4.198;2023-11-22T10:09:05;16.90;97.40
38854;DHT22;24606;51.992;4.198;2023-11-22T10:14:08;17.00;97.30
38854;DHT22;24606;51.992;4.198;2023-11-22T10:19:11;17.00;96.80
38854;DHT22;24606;51.992;4.198;2023-11-22T10:24:21;17.10;96.70
38854;DHT22;24606;51.992;4.198;2023-11-22T10:29:25;17.00;96.70
38854;DHT22;24606;51.992;4.198;2023-11-22T10:34:29;17.10;96.60
38854;DHT22;24606;51.992;4.198;2023-11-22T10:39:31;17.10;96.50
38854;DHT22;24606;51.992;4.198;2023-11-22T10:44:34;17.10;96.40
38854;DHT22;24606;51.992;4.198;2023-11-22T10:49:40;17.10;96.30
38854;DHT22;24606;51.992;4.198;2023-11-22T10:54:47;16.90;95.90
38854;DHT22;24606;51.992;4.198;2023-11-22T10:59:54;17.00;96.60
38854;DHT22;24606;51.992;4.198;2023-11-22T11:05:00;17.10;96.30
38854;DHT22;24606;51.992;4.198;2023-11-22T11:10:08;17.20;96.20
38854;DHT22;24606;51.992;4.198;2023-11-22T11:15:12;17.20;96.00
38854;DHT22;24606;51.992;4.198;2023-11-22T11:20:17;17.30;95.90
38854;DHT22;24606;51.992;4.198;2023-11-22T11:25:20;17.30;95.70
38854;DHT22;24606;51.992;4.198;2023-11-22T11:30:43;17.30;96.00
38854;DHT22;24606;51.992;4.198;2023-11-22T11:35:48;17.20;95.90
38854;DHT22;24606;51.992;4.198;2023-11-22T11:40:52;17.20;95.30
38854;DHT22;24606;51.992;4.198;2023-11-22T11:45:55;16.10;93.30
38854;DHT22;24606;51.992;4.198;2023-11-22T11:50:58;15.40;99.90
38854;DHT22;24606;51.992;4.198;2023-11-22T11:56:01;15.70;94.90
38854;DHT22;24606;51.992;4.198;2023-11-22T12:01:04;15.40;95.60
38854;DHT22;24606;51.992;4.198;2023-11-22T12:06:07;14.20;97.80
38854;DHT22;24606;51.992;4.198;2023-11-22T12:11:09;14.30;98.40
38854;DHT22;24606;51.992;4.198;2023-11-22T12:16:13;15.30;99.90
38854;DHT22;24606;51.992;4.198;2023-11-22T12:21:17;13.90;99.90
38854;DHT22;24606;51.992;4.198;2023-11-22T12:26:20;13.40;99.00
38854;DHT22;24606;51.992;4.198;2023-11-22T12:31:21;14.20;99.90
38854;DHT22;24606;51.992;4.198;2023-11-22T12:36:26;15.00;99.90
38854;DHT22;24606;51.992;4.198;2023-11-22T12:41:27;13.30;99.90
38854;DHT22;24606;51.992;4.198;2023-11-22T12:46:45;13.60;99.90
38854;DHT22;24606;51.992;4.198;2023-11-22T12:51:53;14.00;99.90
38854;DHT22;24606;51.992;4.198;2023-11-22T12:56:55;13.60;95.20
38854;DHT22;24606;51.992;4.198;2023-11-22T13:01:58;14.30;98.50
38854;DHT22;24606;51.992;4.198;2023-11-22T13:07:02;15.10;99.90
38854;DHT22;24606;51.992;4.198;2023-11-22T13:12:04;13.70;93.60
38854;DHT22;24606;51.992;4.198;2023-11-22T13:17:07;12.10;99.50
38854;DHT22;24606;51.992;4.198;2023-11-22T13:22:13;12.30;99.90
38854;DHT22;24606;51.992;4.198;2023-11-22T13:27:14;13.30;99.90
38854;DHT22;24606;51.992;4.198;2023-11-22T13:32:16;12.30;99.90
38854;DHT22;24606;51.992;4.198;2023-11-22T13:37:22;12.40;99.90
38854;DHT22;24606;51.992;4.198;2023-11-22T13:42:24;13.20;99.90
38854;DHT22;24606;51.992;4.198;2023-11-22T13:47:26;13.20;99.90
38854;DHT22;24606;51.992;4.198;2023-11-22T13:52:29;13.00;99.90
38854;DHT22;24606;51.992;4.198;2023-11-22T13:57:31;14.00;99.90
38854;DHT22;24606;51.992;4.198;2023-11-22T14:02:33;13.10;99.90
38854;DHT22;24606;51.992;4.198;2023-11-22T14:07:36;11.30;98.90
38854;DHT22;24606;51.992;4.198;2023-11-22T14:12:38;12.10;99.90
38854;DHT22;24606;51.992;4.198;2023-11-22T14:17:40;13.60;99.70
38854;DHT22;24606;51.992;4.198;2023-11-22T14:22:44;12.90;99.90
38854;DHT22;24606;51.992;4.198;2023-11-22T14:27:46;12.00;99.60
38854;DHT22;24606;51.992;4.198;2023-11-22T14:32:53;12.40;99.90
38854;DHT22;24606;51.992;4.198;2023-11-22T14:37:56;11.80;99.90
38854;DHT22;24606;51.992;4.198;2023-11-22T14:42:59;11.30;99.90
38854;DHT22;24606;51.992;4.198;2023-11-22T14:48:03;12.40;99.90
38854;DHT22;24606;51.992;4.198;2023-11-22T14:53:07;11.90;99.90
38854;DHT22;24606;51.992;4.198;2023-11-22T14:58:09;11.50;99.90
38854;DHT22;24606;51.992;4.198;2023-11-22T15:03:11;10.70;99.90
38854;DHT22;24606;51.992;4.198;2023-11-22T15:08:15;10.90;99.90
38854;DHT22;24606;51.992;4.198;2023-11-22T15:13:17;10.90;99.90
38854;DHT22;24606;51.992;4.198;2023-11-22T15:18:19;10.30;99.90
38854;DHT22;24606;51.992;4.198;2023-11-22T15:23:22;10.90;99.90
38854;DHT22;24606;51.992;4.198;2023-11-22T15:28:24;11.30;99.90
38854;DHT22;24606;51.992;4.198;2023-11-22T15:33:26;10.60;99.90
38854;DHT22;24606;51.992;4.198;2023-11-22T15:38:29;10.80;99.90
38854;DHT22;24606;51.992;4.198;2023-11-22T15:43:31;10.60;99.90
38854;DHT22;24606;51.992;4.198;2023-11-22T15:48:34;10.50;99.90
38854;DHT22;24606;51.992;4.198;2023-11-22T15:53:38;11.60;99.90
38854;DHT22;24606;51.992;4.198;2023-11-22T15:58:39;11.20;99.90
38854;DHT22;24606;51.992;4.198;2023-11-22T16:03:42;11.10;99.90
38854;DHT22;24606;51.992;4.198;2023-11-22T16:08:46;11.50;99.90
38854;DHT22;24606;51.992;4.198;2023-11-22T16:13:47;10.60;99.90
38854;DHT22;24606;51.992;4.198;2023-11-22T16:18:49;10.30;99.90
38854;DHT22;24606;51.992;4.198;2023-11-22T16:23:52;10.90;99.90
38854;DHT22;24606;51.992;4.198;2023-11-22T16:28:54;10.90;99.90
38854;DHT22;24606;51.992;4.198;2023-11-22T16:33:56;10.80;99.90
38854;DHT22;24606;51.992;4.198;2023-11-22T16:39:01;10.60;99.90
38854;DHT22;24606;51.992;4.198;2023-11-22T16:44:04;11.10;99.90
38854;DHT22;24606;51.992;4.198;2023-11-22T16:49:05;10.80;99.90
38854;DHT22;24606;51.992;4.198;2023-11-22T16:54:10;10.10;99.90
38854;DHT22;24606;51.992;4.198;2023-11-22T16:59:11;9.70;99.90
38854;DHT22;24606;51.992;4.198;2023-11-22T17:04:13;9.70;99.90
38854;DHT22;24606;51.992;4.198;2023-11-22T17:09:16;9.80;99.90
38854;DHT22;24606;51.992;4.198;2023-11-22T17:14:19;9.40;99.90
38854;DHT22;24606;51.992;4.198;2023-11-22T17:19:20;9.50;99.90
38854;DHT22;24606;51.992;4.198;2023-11-22T17:24:24;9.30;99.90
38854;DHT22;24606;51.992;4.198;2023-11-22T17:29:26;10.40;99.90
38854;DHT22;24606;51.992;4.198;2023-11-22T17:34:31;11.00;99.90
38854;DHT22;24606;51.992;4.198;2023-11-22T17:39:34;10.70;99.90
38854;DHT22;24606;51.992;4.198;2023-11-22T17:44:36;10.70;99.90
38854;DHT22;24606;51.992;4.198;2023-11-22T17:49:38;10.30;99.90
38854;DHT22;24606;51.992;4.198;2023-11-22T17:54:42;10.60;99.90
38854;DHT22;24606;51.992;4.198;2023-11-22T17:59:45;10.00;99.90
38854;DHT22;24606;51.992;4.198;2023-11-22T18:04:47;11.30;99.90
38854;DHT22;24606;51.992;4.198;2023-11-22T18:09:50;11.20;99.90
38854;DHT22;24606;51.992;4.198;2023-11-22T18:14:52;11.00;99.90
38854;DHT22;24606;51.992;4.198;2023-11-22T18:19:54;10.50;99.90
38854;DHT22;24606;51.992;4.198;2023-11-22T18:24:57;10.20;99.90
38854;DHT22;24606;51.992;4.198;2023-11-22T18:29:59;10.20;99.90
38854;DHT22;24606;51.992;4.198;2023-11-22T18:35:02;10.20;99.90
38854;DHT22;24606;51.992;4.198;2023-11-22T18:40:06;10.20;99.90
38854;DHT22;24606;51.992;4.198;2023-11-22T18:45:09;10.00;99.90
38854;DHT22;24606;51.992;4.198;2023-11-22T18:50:12;9.70;99.90
38854;DHT22;24606;51.992;4.198;2023-11-22T18:55:16;10.00;99.90
38854;DHT22;24606;51.992;4.198;2023-11-22T19:00:18;9.90;99.90
38854;DHT22;24606;51.992;4.198;2023-11-22T19:05:20;9.90;99.90
38854;DHT22;24606;51.992;4.198;2023-11-22T19:10:23;9.90;99.90
38854;DHT22;24606;51.992;4.198;2023-11-22T19:15:26;10.00;99.90
38854;DHT22;24606;51.992;4.198;2023-11-22T19:20:28;10.30;99.90
38854;DHT22;24606;51.992;4.198;2023-11-22T19:25:32;10.50;99.90
38854;DHT22;24606;51.992;4.198;2023-11-22T19:30:33;10.80;99.90
38854;DHT22;24606;51.992;4.198;2023-11-22T19:35:35;10.70;99.90
38854;DHT22;24606;51.992;4.198;2023-11-22T19:40:39;10.80;99.90
38854;DHT22;24606;51.992;4.198;2023-11-22T19:45:42;10.60;99.90
38854;DHT22;24606;51.992;4.198;2023-11-22T19:50:44;10.60;99.90
38854;DHT22;24606;51.992;4.198;2023-11-22T19:55:48;10.40;99.90
38854;DHT22;24606;51.992;4.198;2023-11-22T20:00:50;10.60;99.90
38854;DHT22;24606;51.992;4.198;2023-11-22T20:05:52;10.70;99.90
38854;DHT22;24606;51.992;4.198;2023-11-22T20:10:55;11.00;99.90
38854;DHT22;24606;51.992;4.198;2023-11-22T20:15:57;10.90;99.90
38854;DHT22;24606;51.992;4.198;2023-11-22T20:20:58;11.20;99.90
38854;DHT22;24606;51.992;4.198;2023-11-22T20:26:02;10.90;99.90
38854;DHT22;24606;51.992;4.198;2023-11-22T20:31:05;10.90;99.90
38854;DHT22;24606;51.992;4.198;2023-11-22T20:36:12;11.30;99.90
38854;DHT22;24606;51.992;4.198;2023-11-22T20:41:18;10.90;99.90
38854;DHT22;24606;51.992;4.198;2023-11-22T20:46:20;10.80;99.90
38854;DHT22;24606;51.992;4.198;2023-11-22T20:51:22;11.10;99.90
38854;DHT22;24606;51.992;4.198;2023-11-22T20:56:26;11.40;99.90
38854;DHT22;24606;51.992;4.198;2023-11-22T21:01:28;11.20;99.90
38854;DHT22;24606;51.992;4.198;2023-11-22T21:06:30;11.00;99.90
38854;DHT22;24606;51.992;4.198;2023-11-22T21:11:37;11.00;99.90
38854;DHT22;24606;51.992;4.198;2023-11-22T21:16:39;11.20;99.90
38854;DHT22;24606;51.992;4.198;2023-11-22T21:21:41;11.20;99.90
38854;DHT22;24606;51.992;4.198;2023-11-22T21:26:44;11.30;99.90
38854;DHT22;24606;51.992;4.198;2023-11-22T21:31:46;11.50;99.90
38854;DHT22;24606;51.992;4.198;2023-11-22T21:36:48;11.40;99.90
38854;DHT22;24606;51.992;4.198;2023-11-22T21:41:51;11.40;99.90
38854;DHT22;24606;51.992;4.198;2023-11-22T21:46:53;11.50;99.90
38854;DHT22;24606;51.992;4.198;2023-11-22T21:51:54;11.70;99.90
38854;DHT22;24606;51.992;4.198;2023-11-22T21:56:57;11.50;99.90
38854;DHT22;24606;51.992;4.198;2023-11-22T22:01:59;11.40;99.90
38854;DHT22;24606;51.992;4.198;2023-11-22T22:07:02;11.60;99.90
38854;DHT22;24606;51.992;4.198;2023-11-22T22:12:05;11.50;99.90
38854;DHT22;24606;51.992;4.198;2023-11-22T22:17:07;11.60;99.90
38854;DHT22;24606;51.992;4.198;2023-11-22T22:22:09;11.60;99.90
38854;DHT22;24606;51.992;4.198;2023-11-22T22:27:12;11.60;99.90
38854;DHT22;24606;51.992;4.198;2023-11-22T22:32:14;11.70;99.90
38854;DHT22;24606;51.992;4.198;2023-11-22T22:37:16;11.60;99.90
38854;DHT22;24606;51.992;4.198;2023-11-22T22:42:19;11.50;99.90
38854;DHT22;24606;51.992;4.198;2023-11-22T22:47:21;11.80;99.90
38854;DHT22;24606;51.992;4.198;2023-11-22T22:52:22;11.70;99.90
38854;DHT22;24606;51.992;4.198;2023-11-22T22:57:25;11.70;99.90
38854;DHT22;24606;51.992;4.198;2023-11-22T23:02:27;11.70;99.90
38854;DHT22;24606;51.992;4.198;2023-11-22T23:07:30;11.60;99.90
38854;DHT22;24606;51.992;4.198;2023-11-22T23:12:33;11.70;99.90
38854;DHT22;24606;51.992;4.198;2023-11-22T23:17:37;11.80;99.90
38854;DHT22;24606;51.992;4.198;2023-11-22T23:22:39;11.90;99.90
38854;DHT22;24606;51.992;4.198;2023-11-22T23:27:43;11.80;99.90
38854;DHT22;24606;51.992;4.198;2023-11-22T23:32:46;11.90;99.90
38854;DHT22;24606;51.992;4.198;2023-11-22T23:37:47;11.90;99.90
38854;DHT22;24606;51.992;4.198;2023-11-22T23:42:51;11.80;99.90
38854;DHT22;24606;51.992;4.198;2023-11-22T23:47:54;11.90;99.90
38854;DHT22;24606;51.992;4.198;2023-11-22T23:52:56;12.00;99.90
38854;DHT22;24606;51.992;4.198;2023-11-22T23:57:59;12.00;99.90
